createdAt,value
2023-02-19T00:01:24.589Z,10.63
2023-02-19T00:03:52.414Z,16.92
2023-02-19T00:06:19.363Z,13.20
2023-02-19T00:08:45.760Z,12.20
2023-02-19T00:11:13.087Z,16.50
2023-02-19T00:13:41.693Z,10.70
2023-02-19T00:16:13.302Z,12.32
2023-02-19T00:18:39.815Z,13.88
2023-02-19T00:21:06.484Z,7.03
2023-02-19T00:23:32.977Z,12.57
2023-02-19T00:26:18.988Z,15.68
2023-02-19T00:28:46.246Z,13.30
2023-02-19T00:31:18.277Z,12.85
2023-02-19T00:33:45.590Z,12.93
2023-02-19T00:36:12.420Z,21.67
2023-02-19T00:38:39.914Z,9.15
2023-02-19T00:41:19.108Z,7.20
2023-02-19T00:43:45.495Z,11.55
2023-02-19T00:46:11.871Z,15.35
2023-02-19T00:48:38.281Z,10.10
2023-02-19T00:51:04.697Z,11.07
2023-02-19T00:53:31.088Z,14.98
2023-02-19T00:55:57.501Z,12.13
2023-02-19T00:58:23.838Z,12.45
2023-02-19T01:00:50.146Z,12.82
2023-02-19T01:03:16.466Z,7.38
2023-02-19T01:05:42.749Z,8.23
2023-02-19T01:08:09.075Z,13.77
2023-02-19T01:10:35.383Z,8.00
2023-02-19T01:13:01.735Z,17.30
2023-02-19T01:15:28.138Z,12.13
2023-02-19T01:17:54.529Z,9.30
2023-02-19T01:20:20.867Z,12.05
2023-02-19T01:22:47.175Z,10.38
2023-02-19T01:25:13.496Z,10.43
2023-02-19T01:27:39.854Z,8.20
2023-02-19T01:30:06.485Z,8.13
2023-02-19T01:32:32.951Z,8.60
2023-02-19T01:34:59.668Z,11.85
2023-02-19T01:37:25.990Z,14.30
2023-02-19T01:39:52.372Z,18.42
2023-02-19T01:42:18.692Z,8.90
2023-02-19T01:44:45.238Z,8.25
2023-02-19T01:47:12.098Z,18.15
2023-02-19T01:49:40.677Z,6.70
2023-02-19T01:52:15.836Z,11.18
2023-02-19T01:54:43.669Z,12.18
2023-02-19T01:57:13.468Z,11.55
2023-02-19T01:59:40.334Z,7.90
2023-02-19T02:02:06.837Z,8.90
2023-02-19T02:04:33.780Z,11.90
2023-02-19T02:07:01.160Z,13.15
2023-02-19T02:09:47.550Z,12.00
2023-02-19T02:12:14.074Z,11.80
2023-02-19T02:14:42.964Z,13.90
2023-02-19T02:17:21.606Z,14.38
2023-02-19T02:19:53.799Z,10.88
2023-02-19T02:22:42.857Z,16.42
2023-02-19T02:25:28.120Z,15.63
2023-02-19T02:28:12.998Z,14.25
2023-02-19T02:30:56.029Z,14.40
2023-02-19T02:33:41.141Z,10.48
2023-02-19T02:36:08.874Z,19.30
2023-02-19T02:38:37.604Z,12.82
2023-02-19T02:41:04.695Z,8.48
2023-02-19T02:43:31.373Z,5.13
2023-02-19T02:45:57.777Z,9.63
2023-02-19T02:48:29.943Z,13.57
2023-02-19T02:51:17.461Z,14.95
2023-02-19T02:54:22.874Z,11.10
2023-02-19T02:56:50.006Z,13.05
2023-02-19T02:59:18.615Z,12.65
2023-02-19T03:02:14.125Z,9.77
2023-02-19T03:05:19.312Z,13.98
2023-02-19T03:07:45.629Z,9.77
2023-02-19T03:10:13.452Z,20.15
2023-02-19T03:12:58.987Z,9.52
2023-02-19T03:15:46.190Z,16.40
2023-02-19T03:18:32.540Z,13.35
2023-02-19T03:20:59.858Z,13.90
2023-02-19T03:23:47.742Z,15.93
2023-02-19T03:26:14.809Z,7.57
2023-02-19T03:29:01.707Z,14.70
2023-02-19T03:31:29.703Z,16.60
2023-02-19T03:33:57.527Z,13.88
2023-02-19T03:36:27.141Z,13.73
2023-02-19T03:39:02.030Z,14.88
2023-02-19T03:41:48.052Z,14.70
2023-02-19T03:44:33.320Z,11.38
2023-02-19T03:47:06.273Z,14.20
2023-02-19T03:49:35.472Z,10.13
2023-02-19T03:52:04.538Z,11.90
2023-02-19T03:54:57.229Z,14.75
2023-02-19T03:57:28.198Z,8.13
2023-02-19T04:00:05.855Z,13.82
2023-02-19T04:02:35.005Z,4.85
2023-02-19T04:05:14.291Z,13.00
2023-02-19T04:07:43.643Z,11.57
2023-02-19T04:10:10.188Z,12.65
2023-02-19T04:12:38.256Z,10.40
2023-02-19T04:15:09.921Z,8.93
2023-02-19T04:17:39.028Z,9.52
2023-02-19T04:20:07.522Z,8.95
2023-02-19T04:22:34.914Z,15.35
2023-02-19T04:25:01.422Z,9.02
2023-02-19T04:27:27.767Z,5.03
2023-02-19T04:29:54.205Z,8.68
2023-02-19T04:32:20.717Z,8.80
2023-02-19T04:34:47.084Z,16.17
2023-02-19T04:37:13.576Z,14.18
2023-02-19T04:39:39.907Z,6.90
2023-02-19T04:42:06.245Z,11.40
2023-02-19T04:44:33.335Z,12.00
2023-02-19T04:46:59.634Z,10.80
2023-02-19T04:49:26.024Z,13.52
2023-02-19T04:51:52.541Z,13.18
2023-02-19T04:54:18.864Z,13.43
2023-02-19T04:56:45.198Z,11.10
2023-02-19T04:59:11.569Z,17.90
2023-02-19T05:01:37.892Z,11.00
2023-02-19T05:04:04.998Z,11.35
2023-02-19T05:06:31.390Z,15.52
2023-02-19T05:08:57.828Z,4.78
2023-02-19T05:11:24.384Z,11.32
2023-02-19T05:13:51.034Z,6.43
2023-02-19T05:16:17.801Z,9.18
2023-02-19T05:18:45.294Z,11.95
2023-02-19T05:21:12.074Z,8.38
2023-02-19T05:23:38.983Z,8.13
2023-02-19T05:26:06.550Z,8.65
2023-02-19T05:28:33.022Z,7.10
2023-02-19T05:31:03.852Z,8.85
2023-02-19T05:33:30.181Z,8.75
2023-02-19T05:35:56.578Z,8.20
2023-02-19T05:38:23.269Z,9.73
2023-02-19T05:40:49.801Z,11.25
2023-02-19T05:43:16.192Z,6.72
2023-02-19T05:45:43.927Z,7.40
2023-02-19T05:48:10.771Z,6.13
2023-02-19T05:50:39.640Z,7.28
2023-02-19T05:53:06.406Z,7.35
2023-02-19T05:55:36.262Z,9.15
2023-02-19T05:58:02.888Z,7.88
2023-02-19T06:00:29.265Z,5.90
2023-02-19T06:02:55.641Z,6.25
2023-02-19T06:05:22.058Z,10.15
2023-02-19T06:07:50.404Z,7.88
2023-02-19T06:10:17.081Z,7.20
2023-02-19T06:12:43.536Z,6.90
2023-02-19T06:15:09.894Z,5.30
2023-02-19T06:17:36.253Z,8.48
2023-02-19T06:20:03.271Z,6.45
2023-02-19T06:22:29.600Z,10.48
2023-02-19T06:24:55.963Z,7.35
2023-02-19T06:27:22.363Z,9.48
2023-02-19T06:29:48.744Z,5.25
2023-02-19T06:32:15.217Z,6.53
2023-02-19T06:34:41.631Z,8.77
2023-02-19T06:37:08.007Z,6.47
2023-02-19T06:39:34.448Z,3.55
2023-02-19T06:42:00.870Z,4.15
2023-02-19T06:44:27.200Z,6.50
2023-02-19T06:46:56.863Z,5.53
2023-02-19T06:49:23.200Z,7.95
2023-02-19T06:51:49.494Z,6.40
2023-02-19T06:54:15.836Z,10.43
2023-02-19T06:56:42.200Z,8.15
2023-02-19T06:59:10.390Z,6.45
2023-02-19T07:01:37.241Z,8.63
2023-02-19T07:04:04.560Z,10.70
2023-02-19T07:06:31.288Z,7.80
2023-02-19T07:08:58.117Z,6.43
2023-02-19T07:11:24.727Z,8.05
2023-02-19T07:14:14.178Z,7.70
2023-02-19T07:16:40.618Z,7.75
2023-02-19T07:19:06.995Z,6.10
2023-02-19T07:21:37.610Z,3.90
2023-02-19T07:24:05.431Z,11.55
2023-02-19T07:26:31.984Z,5.78
2023-02-19T07:28:58.335Z,4.07
2023-02-19T07:31:24.930Z,4.63
2023-02-19T07:33:51.603Z,13.00
2023-02-19T07:36:18.332Z,8.90
2023-02-19T07:38:44.959Z,5.28
2023-02-19T07:41:11.664Z,8.88
2023-02-19T07:43:38.849Z,7.97
2023-02-19T07:46:06.282Z,9.88
2023-02-19T07:48:34.135Z,5.60
2023-02-19T07:51:01.335Z,8.38
2023-02-19T07:53:28.076Z,10.35
2023-02-19T07:55:58.600Z,11.30
2023-02-19T07:58:24.941Z,10.43
2023-02-19T08:00:51.326Z,10.52
2023-02-19T08:03:17.703Z,10.23
2023-02-19T08:05:44.936Z,10.07
2023-02-19T08:08:12.850Z,8.63
2023-02-19T08:10:57.928Z,4.95
2023-02-19T08:13:25.341Z,8.88
2023-02-19T08:16:16.951Z,8.70
2023-02-19T08:18:45.472Z,12.68
2023-02-19T08:21:12.052Z,14.77
2023-02-19T08:23:38.871Z,9.00
2023-02-19T08:26:05.587Z,9.40
2023-02-19T08:28:32.318Z,5.07
2023-02-19T08:31:00.165Z,6.13
2023-02-19T08:33:26.688Z,12.43
2023-02-19T08:35:53.061Z,15.20
2023-02-19T08:38:19.383Z,7.70
2023-02-19T08:40:45.739Z,10.45
2023-02-19T08:43:13.172Z,17.67
2023-02-19T08:45:40.574Z,12.88
2023-02-19T08:48:07.264Z,12.90
2023-02-19T08:50:34.114Z,10.20
2023-02-19T08:53:00.665Z,18.02
2023-02-19T08:55:27.047Z,8.77
2023-02-19T08:57:53.468Z,12.43
2023-02-19T09:00:21.375Z,10.95
2023-02-19T09:02:48.422Z,7.80
2023-02-19T09:05:15.291Z,10.75
2023-02-19T09:07:41.785Z,12.13
2023-02-19T09:10:08.506Z,10.52
2023-02-19T09:12:34.926Z,11.82
2023-02-19T09:15:01.257Z,10.18
2023-02-19T09:17:27.711Z,15.90
2023-02-19T09:19:54.102Z,9.45
2023-02-19T09:22:20.648Z,12.93
2023-02-19T09:24:46.949Z,13.35
2023-02-19T09:27:17.283Z,7.28
2023-02-19T09:29:44.219Z,12.45
2023-02-19T09:32:11.073Z,10.85
2023-02-19T09:34:38.995Z,11.73
2023-02-19T09:37:05.690Z,9.82
2023-02-19T09:39:32.351Z,4.28
2023-02-19T09:42:01.140Z,4.40
2023-02-19T09:44:29.057Z,9.65
2023-02-19T09:46:56.117Z,4.78
2023-02-19T09:49:23.192Z,4.60
2023-02-19T09:52:02.443Z,5.60
2023-02-19T09:54:30.294Z,3.67
2023-02-19T09:56:57.713Z,5.43
2023-02-19T09:59:25.966Z,3.05
2023-02-19T10:01:57.534Z,3.72
2023-02-19T10:04:23.957Z,6.15
2023-02-19T10:06:51.077Z,6.55
2023-02-19T10:09:25.913Z,4.03
2023-02-19T10:11:54.039Z,2.40
2023-02-19T10:14:29.826Z,5.57
2023-02-19T10:19:22.385Z,3.15
2023-02-19T10:21:48.777Z,4.57
2023-02-19T10:24:27.040Z,8.02
2023-02-19T10:26:53.392Z,6.03
2023-02-19T10:29:21.542Z,5.93
2023-02-19T10:31:48.121Z,6.55
2023-02-19T10:34:22.260Z,4.47
2023-02-19T10:36:50.827Z,4.28
2023-02-19T10:39:23.386Z,6.03
2023-02-19T10:41:50.716Z,4.07
2023-02-19T10:44:34.045Z,2.53
2023-02-19T10:47:01.083Z,4.20
2023-02-19T10:49:38.553Z,2.35
2023-02-19T10:52:23.580Z,7.50
2023-02-19T10:54:51.658Z,6.55
2023-02-19T10:57:17.978Z,5.65
2023-02-19T11:00:13.566Z,4.57
2023-02-19T11:02:39.865Z,1.60
2023-02-19T11:05:18.208Z,2.95
2023-02-19T11:07:49.287Z,4.60
2023-02-19T11:10:24.216Z,4.80
2023-02-19T11:12:51.895Z,7.13
2023-02-19T11:15:22.476Z,6.25
2023-02-19T11:18:18.175Z,3.92
2023-02-19T11:20:47.440Z,2.30
2023-02-19T11:23:15.539Z,5.40
2023-02-19T11:25:47.168Z,4.78
2023-02-19T11:28:16.486Z,6.28
2023-02-19T11:30:43.482Z,4.55
2023-02-19T11:33:26.682Z,3.72
2023-02-19T11:35:59.787Z,8.30
2023-02-19T11:38:26.223Z,5.80
2023-02-19T11:40:55.864Z,3.78
2023-02-19T11:43:29.113Z,3.55
2023-02-19T11:45:58.493Z,1.92
2023-02-19T11:48:47.977Z,2.72
2023-02-19T11:51:21.372Z,1.83
2023-02-19T11:53:52.542Z,6.00
2023-02-19T11:56:21.845Z,0.98
2023-02-19T11:59:02.401Z,2.58
2023-02-19T12:01:43.847Z,2.72
2023-02-19T12:04:25.442Z,1.80
2023-02-19T12:06:54.922Z,1.40
2023-02-19T12:09:27.573Z,1.85
2023-02-19T12:12:04.993Z,2.42
2023-02-19T12:14:34.104Z,3.38
2023-02-19T12:17:08.952Z,2.70
2023-02-19T12:19:35.491Z,1.10
2023-02-19T12:22:08.061Z,1.20
2023-02-19T12:24:54.622Z,4.63
2023-02-19T12:27:41.400Z,3.58
2023-02-19T12:30:17.328Z,2.53
2023-02-19T12:33:09.716Z,3.10
2023-02-19T12:35:51.410Z,2.13
2023-02-19T12:38:40.064Z,4.82
2023-02-19T12:41:19.665Z,1.58
2023-02-19T12:43:52.139Z,2.63
2023-02-19T12:46:25.007Z,0.63
2023-02-19T12:48:53.347Z,0.77
2023-02-19T12:51:22.629Z,1.90
2023-02-19T12:53:54.250Z,0.75
2023-02-19T12:56:26.337Z,4.07
2023-02-19T12:58:55.073Z,3.10
2023-02-19T13:01:24.034Z,3.38
2023-02-19T13:04:05.886Z,1.13
2023-02-19T13:06:43.078Z,0.52
2023-02-19T13:09:15.180Z,1.92
2023-02-19T13:11:41.488Z,1.70
2023-02-19T13:14:19.874Z,0.88
2023-02-19T13:16:49.914Z,1.10
2023-02-19T13:19:16.240Z,1.30
2023-02-19T13:22:03.003Z,1.75
2023-02-19T13:24:34.877Z,0.90
2023-02-19T13:27:04.217Z,1.10
2023-02-19T13:29:39.543Z,1.48
2023-02-19T13:32:24.759Z,0.25
2023-02-19T13:35:04.551Z,1.70
2023-02-19T13:37:34.730Z,2.38
2023-02-19T13:40:04.666Z,0.32
2023-02-19T13:42:35.012Z,3.70
2023-02-19T13:45:05.177Z,0.25
2023-02-19T13:47:50.091Z,2.95
2023-02-19T13:50:22.465Z,0.20
2023-02-19T13:52:49.403Z,1.55
2023-02-19T13:55:34.282Z,0.30
2023-02-19T13:58:19.293Z,0.65
2023-02-19T14:00:50.088Z,0.85
2023-02-19T14:03:28.635Z,0.70
2023-02-19T14:06:02.734Z,0.40
2023-02-19T14:08:47.987Z,1.50
2023-02-19T14:11:15.059Z,0.43
2023-02-19T14:13:50.768Z,0.95
2023-02-19T14:16:29.056Z,0.60
2023-02-19T14:18:56.329Z,2.08
2023-02-19T14:21:25.916Z,4.18
2023-02-19T14:23:53.611Z,0.50
2023-02-19T14:26:20.099Z,0.35
2023-02-19T14:28:47.613Z,2.72
2023-02-19T14:31:23.700Z,0.22
2023-02-19T14:33:51.831Z,0.90
2023-02-19T14:36:48.991Z,0.68
2023-02-19T14:39:24.428Z,2.20
2023-02-19T14:41:52.416Z,0.65
2023-02-19T14:44:30.156Z,0.73
2023-02-19T14:47:03.244Z,0.45
2023-02-19T14:49:32.316Z,0.38
2023-02-19T14:52:05.355Z,1.65
2023-02-19T14:54:37.883Z,0.20
2023-02-19T14:57:05.640Z,2.17
2023-02-19T14:59:32.129Z,0.10
2023-02-19T15:01:58.480Z,0.77
2023-02-19T15:04:26.719Z,2.90
2023-02-19T15:06:56.574Z,0.90
2023-02-19T15:09:26.947Z,1.02
2023-02-19T15:11:53.854Z,0.30
2023-02-19T15:14:22.414Z,0.85
2023-02-19T15:16:50.612Z,0.63
2023-02-19T15:19:17.235Z,0.95
2023-02-19T15:21:45.936Z,0.63
2023-02-19T15:24:14.182Z,0.50
2023-02-19T15:26:43.300Z,0.50
2023-02-19T15:29:28.424Z,0.70
2023-02-19T15:31:56.000Z,1.50
2023-02-19T15:34:26.670Z,0.47
2023-02-19T15:36:56.396Z,1.27
2023-02-19T15:39:24.260Z,0.98
2023-02-19T15:41:51.638Z,0.90
2023-02-19T15:44:17.965Z,0.22
2023-02-19T15:46:44.694Z,0.77
2023-02-19T15:49:37.390Z,1.65
2023-02-19T15:52:09.677Z,0.50
2023-02-19T15:54:46.381Z,0.38
2023-02-19T15:57:16.603Z,0.75
2023-02-19T15:59:45.117Z,0.25
2023-02-19T16:02:13.133Z,0.50
2023-02-19T16:04:40.304Z,1.40
2023-02-19T16:07:06.638Z,0.63
2023-02-19T16:09:35.869Z,2.67
2023-02-19T16:12:03.447Z,0.35
2023-02-19T16:14:32.654Z,0.43
2023-02-19T16:17:10.994Z,0.45
2023-02-19T16:19:46.635Z,1.42
2023-02-19T16:22:14.504Z,0.90
2023-02-19T16:24:45.088Z,0.22
2023-02-19T16:27:27.386Z,0.88
2023-02-19T16:29:54.834Z,0.40
2023-02-19T16:32:21.271Z,0.75
2023-02-19T16:34:49.110Z,0.20
2023-02-19T16:37:33.968Z,0.52
2023-02-19T16:40:09.451Z,0.63
2023-02-19T16:42:36.420Z,1.25
2023-02-19T16:45:02.754Z,0.90
2023-02-19T16:47:30.735Z,0.50
2023-02-19T16:49:57.799Z,0.55
2023-02-19T16:52:24.222Z,2.55
2023-02-19T16:54:50.599Z,1.52
2023-02-19T16:57:17.249Z,0.82
2023-02-19T16:59:43.665Z,0.38
2023-02-19T17:02:15.133Z,1.20
2023-02-19T17:04:41.745Z,1.02
2023-02-19T17:07:09.054Z,1.60
2023-02-19T17:09:35.467Z,0.68
2023-02-19T17:12:02.052Z,1.35
2023-02-19T17:14:28.423Z,0.88
2023-02-19T17:16:55.398Z,1.20
2023-02-19T17:19:22.630Z,1.50
2023-02-19T17:21:49.070Z,2.05
2023-02-19T17:24:15.424Z,2.78
2023-02-19T17:26:41.865Z,2.80
2023-02-19T17:29:13.963Z,3.50
2023-02-19T17:31:40.698Z,1.02
2023-02-19T17:34:07.208Z,1.85
2023-02-19T17:36:33.596Z,2.47
2023-02-19T17:39:00.579Z,2.28
2023-02-19T17:41:27.558Z,1.40
2023-02-19T17:43:53.947Z,1.40
2023-02-19T17:46:22.072Z,3.10
2023-02-19T17:48:48.421Z,2.90
2023-02-19T17:51:14.962Z,1.13
2023-02-19T17:53:41.840Z,1.05
2023-02-19T17:56:08.202Z,2.42
2023-02-19T17:58:34.611Z,1.50
2023-02-19T18:01:01.044Z,2.47
2023-02-19T18:03:27.437Z,3.13
2023-02-19T18:05:54.114Z,4.78
2023-02-19T18:08:20.517Z,3.97
2023-02-19T18:10:46.963Z,3.08
2023-02-19T18:13:13.392Z,3.15
2023-02-19T18:15:39.757Z,4.40
2023-02-19T18:18:06.146Z,3.88
2023-02-19T18:20:32.461Z,1.58
2023-02-19T18:22:58.836Z,5.38
2023-02-19T18:25:25.277Z,2.75
2023-02-19T18:27:51.679Z,3.20
2023-02-19T18:30:19.261Z,2.55
2023-02-19T18:32:48.087Z,1.63
2023-02-19T18:35:15.037Z,2.55
2023-02-19T18:37:41.376Z,1.42
2023-02-19T18:40:08.211Z,2.30
2023-02-19T18:42:34.613Z,2.33
2023-02-19T18:45:01.170Z,4.20
2023-02-19T18:47:27.935Z,2.38
2023-02-19T18:49:55.416Z,1.92
2023-02-19T18:52:22.526Z,3.00
2023-02-19T18:54:49.312Z,4.65
2023-02-19T18:57:15.890Z,3.80
2023-02-19T18:59:43.064Z,1.52
2023-02-19T19:02:10.167Z,3.30
2023-02-19T19:04:37.010Z,4.80
2023-02-19T19:07:04.158Z,3.95
2023-02-19T19:09:30.641Z,2.35
2023-02-19T19:11:57.017Z,2.92
2023-02-19T19:14:23.320Z,2.10
2023-02-19T19:16:49.650Z,4.60
2023-02-19T19:19:16.139Z,3.63
2023-02-19T19:21:42.684Z,4.47
2023-02-19T19:24:09.223Z,5.50
2023-02-19T19:26:35.642Z,7.20
2023-02-19T19:29:02.233Z,3.92
2023-02-19T19:31:33.892Z,4.97
2023-02-19T19:34:00.313Z,5.25
2023-02-19T19:36:26.693Z,4.18
2023-02-19T19:38:53.145Z,3.25
2023-02-19T19:41:20.088Z,4.20
2023-02-19T19:43:46.646Z,5.20
2023-02-19T19:46:19.036Z,3.58
2023-02-19T19:48:45.866Z,7.95
2023-02-19T19:51:12.773Z,4.75
2023-02-19T19:53:39.362Z,5.80
2023-02-19T19:56:05.919Z,8.77
2023-02-19T19:58:33.742Z,3.13
2023-02-19T20:01:01.707Z,3.42
2023-02-19T20:03:28.840Z,3.85
2023-02-19T20:05:55.327Z,5.30
2023-02-19T20:08:21.954Z,2.58
2023-02-19T20:10:48.314Z,4.10
2023-02-19T20:13:18.253Z,5.80
2023-02-19T20:15:44.983Z,4.70
2023-02-19T20:18:11.780Z,4.95
2023-02-19T20:20:38.186Z,7.13
2023-02-19T20:23:04.573Z,9.88
2023-02-19T20:25:30.953Z,5.13
2023-02-19T20:27:57.256Z,4.88
2023-02-19T20:30:23.744Z,7.15
2023-02-19T20:32:51.259Z,5.40
2023-02-19T20:35:17.987Z,5.60
2023-02-19T20:37:47.685Z,2.63
2023-02-19T20:40:15.467Z,5.07
2023-02-19T20:42:41.814Z,5.72
2023-02-19T20:45:08.465Z,4.85
2023-02-19T20:47:34.950Z,5.72
2023-02-19T20:50:01.289Z,4.07
2023-02-19T20:52:27.630Z,7.57
2023-02-19T20:54:55.770Z,9.48
2023-02-19T20:57:22.837Z,7.63
2023-02-19T20:59:49.253Z,5.90
2023-02-19T21:02:17.570Z,5.85
2023-02-19T21:04:44.014Z,5.18
2023-02-19T21:07:10.394Z,3.78
2023-02-19T21:09:36.836Z,4.10
2023-02-19T21:12:03.284Z,4.72
2023-02-19T21:14:29.782Z,6.25
2023-02-19T21:16:56.139Z,6.68
2023-02-19T21:19:22.632Z,6.03
2023-02-19T21:21:49.000Z,5.82
2023-02-19T21:24:15.669Z,6.50
2023-02-19T21:26:42.854Z,14.85
2023-02-19T21:29:12.583Z,5.50
2023-02-19T21:31:40.303Z,4.53
2023-02-19T21:34:07.689Z,4.88
2023-02-19T21:36:35.124Z,6.95
2023-02-19T21:39:01.617Z,7.05
2023-02-19T21:41:28.151Z,6.65
2023-02-19T21:43:55.220Z,5.80
2023-02-19T21:46:21.894Z,4.75
2023-02-19T21:48:49.166Z,6.97
2023-02-19T21:51:15.680Z,6.85
2023-02-19T21:53:42.111Z,9.27
2023-02-19T21:56:08.547Z,8.10
2023-02-19T21:58:34.973Z,6.55
2023-02-19T22:01:01.431Z,9.02
2023-02-19T22:03:27.902Z,6.03
2023-02-19T22:05:54.763Z,7.28
2023-02-19T22:08:21.301Z,7.03
2023-02-19T22:10:47.643Z,6.70
2023-02-19T22:13:14.045Z,9.25
2023-02-19T22:15:40.414Z,8.82
2023-02-19T22:18:06.794Z,6.88
2023-02-19T22:20:34.694Z,7.65
2023-02-19T22:23:01.071Z,7.95
2023-02-19T22:25:27.411Z,9.95
2023-02-19T22:27:53.789Z,8.55
2023-02-19T22:30:20.375Z,9.60
2023-02-19T22:32:46.750Z,14.05
2023-02-19T22:35:15.454Z,10.52
2023-02-19T22:37:42.247Z,11.55
2023-02-19T22:40:08.768Z,9.15
2023-02-19T22:42:36.086Z,7.68
2023-02-19T22:45:03.155Z,9.70
2023-02-19T22:47:29.513Z,11.50
2023-02-19T22:49:55.902Z,9.30
2023-02-19T22:52:23.946Z,12.57
2023-02-19T22:54:52.106Z,14.70
2023-02-19T22:57:18.454Z,12.55
2023-02-19T22:59:44.975Z,13.60
2023-02-19T23:02:11.290Z,10.55
2023-02-19T23:04:37.842Z,12.30
2023-02-19T23:07:05.680Z,10.52
2023-02-19T23:09:32.093Z,11.23
2023-02-19T23:12:06.273Z,13.10
2023-02-19T23:14:32.665Z,13.38
2023-02-19T23:16:59.115Z,10.30
2023-02-19T23:19:25.968Z,10.02
2023-02-19T23:21:53.183Z,14.70
2023-02-19T23:24:19.728Z,10.75
2023-02-19T23:26:50.427Z,9.25
2023-02-19T23:29:18.054Z,12.43
2023-02-19T23:31:44.830Z,13.15
2023-02-19T23:34:11.682Z,14.35
2023-02-19T23:36:41.940Z,10.77
2023-02-19T23:39:10.314Z,16.23
2023-02-19T23:41:36.977Z,8.70
2023-02-19T23:44:04.428Z,13.05
2023-02-19T23:46:31.999Z,14.07
2023-02-19T23:48:58.318Z,11.60
2023-02-19T23:51:25.137Z,11.18
2023-02-19T23:53:51.722Z,14.80
2023-02-19T23:56:24.490Z,11.18
2023-02-19T23:58:50.874Z,13.82
